TAP225 LPPT-LPLA
Flight info
| Callsign | TAP225 |
|---|---|
| Flight time | 2h 9m |
| Altitude | 35000 |
| Route | ZIFOG1S ZIFOG DCT GUNTI/M078F350 T25 LENSI DCT BAVAS H121 LM DCT |
| Aircraft | A333/H-SDE3GHIJ2J3J5M1RVWXY/LB2D1 |
Departure
| Time | 2026-04-22 20:03 |
|---|---|
| Airport | Lisbon Humberto Delgado Airport (LPPT) |
Arrival
| Time | 2026-04-22 22:12 |
|---|---|
| Airport | Lajes Airport (LPLA) |
| Time | Latitude | Longitude | Altitude | Speed | Heading |
|---|---|---|---|---|---|
| 2026-04-22 19:12 | 38.77139 | -9.13602 | 341 ft | 0 kts | 201° |
| 2026-04-22 19:47 | 38.77144 | -9.13599 | 341 ft | 2 kts | 201° |
| 2026-04-22 19:47 | 38.77163 | -9.13590 | 341 ft | 2 kts | 200° |
| 2026-04-22 19:48 | 38.77177 | -9.13583 | 340 ft | 2 kts | 200° |
| 2026-04-22 19:48 | 38.77191 | -9.13576 | 340 ft | 2 kts | 200° |
| 2026-04-22 19:48 | 38.77204 | -9.13570 | 340 ft | 0 kts | 200° |
| 2026-04-22 19:48 | 38.77214 | -9.13565 | 340 ft | 2 kts | 191° |
| 2026-04-22 19:49 | 38.77229 | -9.13564 | 340 ft | 2 kts | 171° |
| 2026-04-22 19:49 | 38.77244 | -9.13569 | 340 ft | 2 kts | 155° |
| 2026-04-22 19:49 | 38.77257 | -9.13579 | 340 ft | 2 kts | 137° |
| 2026-04-22 19:49 | 38.77267 | -9.13593 | 341 ft | 2 kts | 120° |
| 2026-04-22 19:50 | 38.77273 | -9.13610 | 341 ft | 2 kts | 103° |
| 2026-04-22 19:50 | 38.77275 | -9.13629 | 342 ft | 2 kts | 86° |
| 2026-04-22 19:50 | 38.77274 | -9.13640 | 342 ft | 1 kts | 77° |
| 2026-04-22 19:50 | 38.77273 | -9.13644 | 343 ft | 0 kts | 77° |
| 2026-04-22 19:53 | 38.77275 | -9.13634 | 342 ft | 3 kts | 78° |
| 2026-04-22 19:53 | 38.77282 | -9.13587 | 340 ft | 7 kts | 78° |
| 2026-04-22 19:53 | 38.77322 | -9.13526 | 338 ft | 10 kts | 16° |
| 2026-04-22 19:53 | 38.77399 | -9.13530 | 340 ft | 11 kts | 350° |
| 2026-04-22 19:54 | 38.77472 | -9.13549 | 342 ft | 10 kts | 348° |
| 2026-04-22 19:54 | 38.77549 | -9.13569 | 345 ft | 12 kts | 348° |
| 2026-04-22 19:54 | 38.77646 | -9.13595 | 349 ft | 15 kts | 350° |
| 2026-04-22 19:54 | 38.77752 | -9.13565 | 351 ft | 16 kts | 20° |
| 2026-04-22 19:55 | 38.77867 | -9.13506 | 351 ft | 19 kts | 22° |
| 2026-04-22 19:55 | 38.78013 | -9.13431 | 350 ft | 25 kts | 12° |
| 2026-04-22 19:55 | 38.78179 | -9.13458 | 358 ft | 22 kts | 347° |
| 2026-04-22 19:55 | 38.78329 | -9.13498 | 366 ft | 20 kts | 348° |
| 2026-04-22 19:56 | 38.78464 | -9.13535 | 372 ft | 19 kts | 348° |
| 2026-04-22 19:56 | 38.78549 | -9.13557 | 373 ft | 4 kts | 347° |
| 2026-04-22 19:56 | 38.78606 | -9.13568 | 374 ft | 11 kts | 1° |
| 2026-04-22 19:56 | 38.78695 | -9.13538 | 371 ft | 17 kts | 20° |
| 2026-04-22 19:57 | 38.78822 | -9.13471 | 365 ft | 21 kts | 22° |
| 2026-04-22 19:57 | 38.78973 | -9.13391 | 359 ft | 24 kts | 22° |
| 2026-04-22 19:57 | 38.79127 | -9.13309 | 358 ft | 23 kts | 22° |
| 2026-04-22 19:57 | 38.79279 | -9.13227 | 357 ft | 23 kts | 22° |
| 2026-04-22 19:58 | 38.79419 | -9.13153 | 359 ft | 20 kts | 22° |
| 2026-04-22 19:58 | 38.79548 | -9.13084 | 360 ft | 19 kts | 23° |
| 2026-04-22 19:58 | 38.79673 | -9.13018 | 358 ft | 20 kts | 22° |
| 2026-04-22 19:58 | 38.79770 | -9.12902 | 351 ft | 18 kts | 100° |
| 2026-04-22 19:59 | 38.79765 | -9.12880 | 349 ft | 0 kts | 112° |
| 2026-04-22 20:01 | 38.79761 | -9.12868 | 348 ft | 6 kts | 113° |
| 2026-04-22 20:01 | 38.79730 | -9.12774 | 341 ft | 12 kts | 113° |
| 2026-04-22 20:01 | 38.79715 | -9.12748 | 340 ft | 2 kts | 171° |
| 2026-04-22 20:01 | 38.79699 | -9.12753 | 340 ft | 0 kts | 200° |
| 2026-04-22 20:02 | 38.79697 | -9.12754 | 340 ft | 2 kts | 200° |
| 2026-04-22 20:02 | 38.79568 | -9.12822 | 341 ft | 50 kts | 202° |
| 2026-04-22 20:02 | 38.79024 | -9.13113 | 345 ft | 120 kts | 203° |
| 2026-04-22 20:02 | 38.78057 | -9.13633 | 393 ft | 176 kts | 205° |
| 2026-04-22 20:03 | 38.76889 | -9.14240 | 1027 ft | 184 kts | 203° |
| 2026-04-22 20:03 | 38.75671 | -9.14818 | 1780 ft | 192 kts | 201° |
| 2026-04-22 20:03 | 38.74439 | -9.15440 | 2579 ft | 198 kts | 205° |
| 2026-04-22 20:03 | 38.73140 | -9.16171 | 3155 ft | 204 kts | 202° |
| 2026-04-22 20:04 | 38.71837 | -9.17081 | 3218 ft | 226 kts | 223° |
| 2026-04-22 20:04 | 38.71003 | -9.18848 | 3387 ft | 246 kts | 255° |
| 2026-04-22 20:04 | 38.70901 | -9.21100 | 3672 ft | 265 kts | 271° |
| 2026-04-22 20:04 | 38.71017 | -9.23525 | 4018 ft | 280 kts | 273° |
| 2026-04-22 20:05 | 38.71190 | -9.26094 | 4334 ft | 298 kts | 274° |
| 2026-04-22 20:05 | 38.71383 | -9.28746 | 4869 ft | 305 kts | 274° |
| 2026-04-22 20:05 | 38.71585 | -9.31453 | 5558 ft | 308 kts | 273° |
| 2026-04-22 20:05 | 38.71788 | -9.34196 | 6208 ft | 312 kts | 273° |
| 2026-04-22 20:06 | 38.71994 | -9.36966 | 6851 ft | 315 kts | 273° |
| 2026-04-22 20:06 | 38.72198 | -9.39738 | 7562 ft | 315 kts | 273° |
| 2026-04-22 20:06 | 38.72402 | -9.42503 | 8231 ft | 316 kts | 272° |
| 2026-04-22 20:06 | 38.72607 | -9.45309 | 8827 ft | 320 kts | 272° |
| 2026-04-22 20:07 | 38.72814 | -9.48130 | 9456 ft | 321 kts | 272° |
| 2026-04-22 20:07 | 38.73024 | -9.51007 | 10070 ft | 324 kts | 272° |
| 2026-04-22 20:07 | 38.73232 | -9.53871 | 10638 ft | 326 kts | 272° |
| 2026-04-22 20:07 | 38.73441 | -9.56767 | 11235 ft | 329 kts | 272° |
| 2026-04-22 20:08 | 38.73651 | -9.59661 | 11822 ft | 331 kts | 271° |
| 2026-04-22 20:08 | 38.73862 | -9.62605 | 12409 ft | 333 kts | 271° |
| 2026-04-22 20:08 | 38.74074 | -9.65549 | 12956 ft | 336 kts | 271° |
| 2026-04-22 20:08 | 38.74284 | -9.68496 | 13496 ft | 337 kts | 270° |
| 2026-04-22 20:09 | 38.74498 | -9.71505 | 14025 ft | 339 kts | 270° |
| 2026-04-22 20:09 | 38.74710 | -9.74510 | 14527 ft | 341 kts | 270° |
| 2026-04-22 20:09 | 38.74925 | -9.77535 | 15041 ft | 343 kts | 270° |
| 2026-04-22 20:09 | 38.75140 | -9.80594 | 15528 ft | 345 kts | 270° |
| 2026-04-22 20:10 | 38.75353 | -9.83627 | 15988 ft | 348 kts | 270° |
| 2026-04-22 20:10 | 38.75568 | -9.86708 | 16442 ft | 351 kts | 270° |
| 2026-04-22 20:10 | 38.75785 | -9.89837 | 16910 ft | 353 kts | 270° |
| 2026-04-22 20:10 | 38.76002 | -9.92954 | 17368 ft | 354 kts | 270° |
| 2026-04-22 20:11 | 38.76220 | -9.96129 | 17812 ft | 357 kts | 270° |
| 2026-04-22 20:11 | 38.76436 | -9.99256 | 18255 ft | 359 kts | 270° |
| 2026-04-22 20:11 | 38.76654 | -10.02443 | 18685 ft | 361 kts | 270° |
| 2026-04-22 20:11 | 38.76872 | -10.05627 | 19158 ft | 362 kts | 270° |
| 2026-04-22 20:12 | 38.77092 | -10.08878 | 19584 ft | 364 kts | 270° |
| 2026-04-22 20:12 | 38.77309 | -10.12078 | 19989 ft | 367 kts | 270° |
| 2026-04-22 20:12 | 38.77457 | -10.14276 | 20275 ft | 368 kts | 270° |
| 2026-04-22 20:12 | 38.77748 | -10.18612 | 20892 ft | 368 kts | 270° |
| 2026-04-22 20:13 | 38.77966 | -10.21869 | 21268 ft | 370 kts | 269° |
| 2026-04-22 20:13 | 38.78183 | -10.25149 | 21702 ft | 371 kts | 269° |
| 2026-04-22 20:13 | 38.78401 | -10.28420 | 22076 ft | 373 kts | 269° |
| 2026-04-22 20:13 | 38.78620 | -10.31747 | 22447 ft | 375 kts | 269° |
| 2026-04-22 20:14 | 38.78838 | -10.35073 | 22834 ft | 377 kts | 269° |
| 2026-04-22 20:14 | 38.79055 | -10.38399 | 23217 ft | 378 kts | 269° |
| 2026-04-22 20:14 | 38.79276 | -10.41785 | 23603 ft | 380 kts | 269° |
| 2026-04-22 20:14 | 38.79494 | -10.45139 | 23992 ft | 381 kts | 269° |
| 2026-04-22 20:15 | 38.79710 | -10.48500 | 24315 ft | 383 kts | 269° |
| 2026-04-22 20:15 | 38.79929 | -10.51902 | 24640 ft | 385 kts | 269° |
| 2026-04-22 20:15 | 38.80148 | -10.55333 | 25045 ft | 386 kts | 269° |
| 2026-04-22 20:15 | 38.80365 | -10.58752 | 25382 ft | 387 kts | 269° |
| 2026-04-22 20:16 | 38.80582 | -10.62182 | 25700 ft | 389 kts | 269° |
| 2026-04-22 20:16 | 38.80801 | -10.65649 | 26104 ft | 390 kts | 269° |
| 2026-04-22 20:16 | 38.81017 | -10.69091 | 26477 ft | 390 kts | 268° |
| 2026-04-22 20:16 | 38.81234 | -10.72552 | 26784 ft | 393 kts | 268° |
| 2026-04-22 20:17 | 38.81451 | -10.76072 | 27089 ft | 395 kts | 268° |
| 2026-04-22 20:17 | 38.81666 | -10.79536 | 27494 ft | 395 kts | 268° |
| 2026-04-22 20:17 | 38.81884 | -10.83078 | 27816 ft | 397 kts | 268° |
| 2026-04-22 20:17 | 38.82099 | -10.86588 | 28132 ft | 398 kts | 268° |
| 2026-04-22 20:18 | 38.82315 | -10.90137 | 28461 ft | 400 kts | 268° |
| 2026-04-22 20:18 | 38.82531 | -10.93681 | 28791 ft | 401 kts | 268° |
| 2026-04-22 20:18 | 38.82743 | -10.97204 | 29086 ft | 403 kts | 268° |
| 2026-04-22 20:18 | 38.82958 | -11.00796 | 29389 ft | 405 kts | 268° |
| 2026-04-22 20:19 | 38.83173 | -11.04392 | 29751 ft | 405 kts | 268° |
| 2026-04-22 20:19 | 38.83387 | -11.08007 | 30043 ft | 407 kts | 268° |
| 2026-04-22 20:19 | 38.83600 | -11.11615 | 30332 ft | 408 kts | 268° |
| 2026-04-22 20:19 | 38.83813 | -11.15251 | 30550 ft | 411 kts | 268° |
| 2026-04-22 20:20 | 38.84027 | -11.18907 | 30831 ft | 413 kts | 268° |
| 2026-04-22 20:20 | 38.84242 | -11.22602 | 31071 ft | 415 kts | 268° |
| 2026-04-22 20:20 | 38.84454 | -11.26271 | 31312 ft | 417 kts | 268° |
| 2026-04-22 20:20 | 38.84667 | -11.29969 | 31585 ft | 418 kts | 268° |
| 2026-04-22 20:21 | 38.84882 | -11.33726 | 31818 ft | 420 kts | 268° |
| 2026-04-22 20:21 | 38.85093 | -11.37441 | 32054 ft | 422 kts | 268° |
| 2026-04-22 20:21 | 38.85305 | -11.41185 | 32288 ft | 423 kts | 268° |
| 2026-04-22 20:21 | 38.85517 | -11.44953 | 32506 ft | 424 kts | 268° |
| 2026-04-22 20:22 | 38.85726 | -11.48699 | 32662 ft | 427 kts | 268° |
| 2026-04-22 20:22 | 38.85936 | -11.52486 | 32881 ft | 427 kts | 268° |
| 2026-04-22 20:22 | 38.86147 | -11.56291 | 33080 ft | 428 kts | 268° |
| 2026-04-22 20:22 | 38.86357 | -11.60116 | 33227 ft | 430 kts | 268° |
| 2026-04-22 20:23 | 38.86564 | -11.63909 | 33397 ft | 432 kts | 268° |
| 2026-04-22 20:23 | 38.86770 | -11.67732 | 33557 ft | 433 kts | 268° |
| 2026-04-22 20:23 | 38.86979 | -11.71582 | 33753 ft | 433 kts | 267° |
| 2026-04-22 20:23 | 38.87187 | -11.75472 | 33899 ft | 435 kts | 267° |
| 2026-04-22 20:24 | 38.87392 | -11.79301 | 34040 ft | 436 kts | 267° |
| 2026-04-22 20:24 | 38.87597 | -11.83191 | 34183 ft | 436 kts | 267° |
| 2026-04-22 20:24 | 38.87802 | -11.87075 | 34323 ft | 437 kts | 267° |
| 2026-04-22 20:24 | 38.88002 | -11.90908 | 34461 ft | 437 kts | 267° |
| 2026-04-22 20:25 | 38.88202 | -11.94776 | 34597 ft | 437 kts | 267° |
| 2026-04-22 20:25 | 38.88403 | -11.98666 | 34733 ft | 437 kts | 267° |
| 2026-04-22 20:25 | 38.88604 | -12.02575 | 34876 ft | 437 kts | 267° |
| 2026-04-22 20:25 | 38.88799 | -12.06409 | 34983 ft | 438 kts | 267° |
| 2026-04-22 20:26 | 38.88997 | -12.10353 | 34949 ft | 441 kts | 267° |
| 2026-04-22 20:26 | 38.89392 | -12.18210 | 34974 ft | 445 kts | 267° |
| 2026-04-22 20:27 | 38.89783 | -12.26136 | 34966 ft | 449 kts | 267° |
| 2026-04-22 20:27 | 38.90173 | -12.34130 | 34962 ft | 451 kts | 267° |
| 2026-04-22 20:28 | 38.90559 | -12.42183 | 34956 ft | 452 kts | 267° |
| 2026-04-22 20:28 | 38.90939 | -12.50213 | 34948 ft | 453 kts | 267° |
| 2026-04-22 20:29 | 38.91317 | -12.58286 | 34947 ft | 454 kts | 267° |
| 2026-04-22 20:29 | 38.91685 | -12.66305 | 34956 ft | 453 kts | 266° |
| 2026-04-22 20:30 | 38.92050 | -12.74365 | 34955 ft | 454 kts | 266° |
| 2026-04-22 20:30 | 38.92408 | -12.82414 | 34966 ft | 454 kts | 266° |
| 2026-04-22 20:31 | 38.92763 | -12.90498 | 34950 ft | 452 kts | 266° |
| 2026-04-22 20:31 | 38.93108 | -12.98484 | 34955 ft | 451 kts | 266° |
| 2026-04-22 20:32 | 38.93449 | -13.06499 | 34947 ft | 450 kts | 265° |
| 2026-04-22 20:32 | 38.93782 | -13.14488 | 34938 ft | 450 kts | 265° |
| 2026-04-22 20:33 | 38.94114 | -13.22527 | 34936 ft | 450 kts | 265° |
| 2026-04-22 20:33 | 38.94436 | -13.30488 | 34932 ft | 449 kts | 265° |
| 2026-04-22 20:34 | 38.94753 | -13.38486 | 34931 ft | 449 kts | 265° |
| 2026-04-22 20:34 | 38.95065 | -13.46452 | 34918 ft | 448 kts | 265° |
| 2026-04-22 20:35 | 38.95370 | -13.54444 | 34913 ft | 448 kts | 265° |
| 2026-04-22 20:35 | 38.95671 | -13.62409 | 34918 ft | 448 kts | 265° |
| 2026-04-22 20:36 | 38.95966 | -13.70384 | 34915 ft | 447 kts | 264° |
| 2026-04-22 20:36 | 38.96256 | -13.78343 | 34884 ft | 446 kts | 264° |
| 2026-04-22 20:37 | 38.96538 | -13.86254 | 34902 ft | 447 kts | 264° |
| 2026-04-22 20:37 | 38.96816 | -13.94203 | 34905 ft | 447 kts | 264° |
| 2026-04-22 20:38 | 38.97089 | -14.02155 | 34886 ft | 446 kts | 264° |
| 2026-04-22 20:38 | 38.97357 | -14.10097 | 34878 ft | 445 kts | 264° |
| 2026-04-22 20:39 | 38.97616 | -14.17995 | 34881 ft | 445 kts | 264° |
| 2026-04-22 20:39 | 38.97871 | -14.25905 | 35095 ft | 441 kts | 264° |
| 2026-04-22 20:39 | 38.97995 | -14.29832 | 35224 ft | 439 kts | 264° |
| 2026-04-22 20:40 | 38.98117 | -14.33697 | 35344 ft | 437 kts | 264° |
| 2026-04-22 20:40 | 38.98238 | -14.37590 | 35468 ft | 435 kts | 264° |
| 2026-04-22 20:40 | 38.98355 | -14.41421 | 35593 ft | 433 kts | 264° |
| 2026-04-22 20:40 | 38.98473 | -14.45279 | 35718 ft | 431 kts | 264° |
| 2026-04-22 20:41 | 38.98588 | -14.49083 | 35835 ft | 430 kts | 264° |
| 2026-04-22 20:41 | 38.98814 | -14.56772 | 35850 ft | 433 kts | 264° |
| 2026-04-22 20:42 | 38.99038 | -14.64532 | 35855 ft | 435 kts | 264° |
| 2026-04-22 20:42 | 38.99258 | -14.72248 | 35845 ft | 437 kts | 263° |
| 2026-04-22 20:43 | 38.99474 | -14.80090 | 35864 ft | 438 kts | 263° |
| 2026-04-22 20:43 | 38.99682 | -14.87844 | 35859 ft | 438 kts | 263° |
| 2026-04-22 20:44 | 38.99890 | -14.95654 | 35840 ft | 439 kts | 263° |
| 2026-04-22 20:44 | 39.00074 | -15.03450 | 35940 ft | 436 kts | 263° |
| 2026-04-22 20:45 | 39.00234 | -15.11198 | 35934 ft | 436 kts | 263° |
| 2026-04-22 20:45 | 39.00391 | -15.18957 | 35940 ft | 436 kts | 263° |
| 2026-04-22 20:46 | 39.00614 | -15.30624 | 35926 ft | 436 kts | 263° |
| 2026-04-22 20:46 | 39.00757 | -15.38375 | 35932 ft | 436 kts | 263° |
| 2026-04-22 20:47 | 39.00894 | -15.46146 | 35943 ft | 435 kts | 263° |
| 2026-04-22 20:47 | 39.01026 | -15.53899 | 35931 ft | 435 kts | 263° |
| 2026-04-22 20:48 | 39.01155 | -15.61671 | 35919 ft | 436 kts | 263° |
| 2026-04-22 20:48 | 39.01276 | -15.69415 | 35934 ft | 436 kts | 262° |
| 2026-04-22 20:49 | 39.01393 | -15.77213 | 35912 ft | 436 kts | 263° |
| 2026-04-22 20:49 | 39.01505 | -15.84935 | 35912 ft | 435 kts | 263° |
| 2026-04-22 20:50 | 39.01613 | -15.92714 | 35898 ft | 435 kts | 263° |
| 2026-04-22 20:50 | 39.01663 | -15.96589 | 35727 ft | 439 kts | 262° |
| 2026-04-22 20:50 | 39.01713 | -16.00545 | 35472 ft | 443 kts | 263° |
| 2026-04-22 20:51 | 39.01765 | -16.04459 | 35325 ft | 440 kts | 262° |
| 2026-04-22 20:51 | 39.01816 | -16.08341 | 35233 ft | 434 kts | 262° |
| 2026-04-22 20:51 | 39.01860 | -16.12205 | 35129 ft | 432 kts | 262° |
| 2026-04-22 20:51 | 39.01902 | -16.16071 | 35027 ft | 433 kts | 262° |
| 2026-04-22 20:52 | 39.01946 | -16.19933 | 34923 ft | 434 kts | 262° |
| 2026-04-22 20:52 | 39.01989 | -16.23799 | 34827 ft | 433 kts | 262° |
| 2026-04-22 20:52 | 39.02069 | -16.31520 | 34812 ft | 435 kts | 262° |
| 2026-04-22 20:53 | 39.02146 | -16.39265 | 34793 ft | 435 kts | 262° |
| 2026-04-22 20:53 | 39.02215 | -16.47026 | 34793 ft | 436 kts | 263° |
| 2026-04-22 20:54 | 39.02281 | -16.54780 | 34786 ft | 436 kts | 262° |
| 2026-04-22 20:54 | 39.02344 | -16.62532 | 34787 ft | 435 kts | 262° |
| 2026-04-22 20:55 | 39.02398 | -16.70309 | 34791 ft | 434 kts | 262° |
| 2026-04-22 20:55 | 39.02449 | -16.78052 | 34779 ft | 434 kts | 262° |
| 2026-04-22 20:56 | 39.02492 | -16.85768 | 34768 ft | 434 kts | 262° |
| 2026-04-22 20:56 | 39.02532 | -16.93521 | 34777 ft | 434 kts | 262° |
| 2026-04-22 20:57 | 39.02566 | -17.01251 | 34760 ft | 435 kts | 262° |
| 2026-04-22 20:57 | 39.02596 | -17.09021 | 34763 ft | 436 kts | 263° |
| 2026-04-22 20:58 | 39.02619 | -17.16770 | 34791 ft | 436 kts | 263° |
| 2026-04-22 20:58 | 39.02641 | -17.24546 | 34769 ft | 437 kts | 263° |
| 2026-04-22 20:59 | 39.02647 | -17.28472 | 34902 ft | 437 kts | 263° |
| 2026-04-22 20:59 | 39.02654 | -17.32323 | 34724 ft | 437 kts | 263° |
| 2026-04-22 20:59 | 39.02664 | -17.40056 | 34785 ft | 431 kts | 263° |
| 2026-04-22 21:00 | 39.02666 | -17.47748 | 34767 ft | 433 kts | 264° |
| 2026-04-22 21:00 | 39.02667 | -17.55467 | 34758 ft | 433 kts | 264° |
| 2026-04-22 21:01 | 39.02662 | -17.63158 | 34753 ft | 432 kts | 264° |
| 2026-04-22 21:01 | 39.02649 | -17.70860 | 34762 ft | 431 kts | 264° |
| 2026-04-22 21:02 | 39.02632 | -17.78554 | 34758 ft | 432 kts | 264° |
| 2026-04-22 21:02 | 39.02612 | -17.86252 | 34771 ft | 429 kts | 264° |
| 2026-04-22 21:03 | 39.02586 | -17.93896 | 34749 ft | 432 kts | 264° |
| 2026-04-22 21:03 | 39.02556 | -18.01625 | 34726 ft | 431 kts | 264° |
| 2026-04-22 21:04 | 39.02518 | -18.09286 | 34742 ft | 432 kts | 264° |
| 2026-04-22 21:04 | 39.02476 | -18.16927 | 34738 ft | 433 kts | 265° |
| 2026-04-22 21:05 | 39.02432 | -18.24630 | 34725 ft | 434 kts | 265° |
| 2026-04-22 21:05 | 39.02378 | -18.32340 | 34722 ft | 435 kts | 265° |
| 2026-04-22 21:06 | 39.02321 | -18.40114 | 34726 ft | 436 kts | 265° |
| 2026-04-22 21:06 | 39.02259 | -18.47837 | 34699 ft | 437 kts | 265° |
| 2026-04-22 21:07 | 39.02192 | -18.55599 | 34708 ft | 438 kts | 265° |
| 2026-04-22 21:07 | 39.02119 | -18.63394 | 34684 ft | 439 kts | 265° |
| 2026-04-22 21:08 | 39.02041 | -18.71255 | 34702 ft | 440 kts | 265° |
| 2026-04-22 21:08 | 39.01958 | -18.79027 | 34693 ft | 441 kts | 265° |
| 2026-04-22 21:09 | 39.01869 | -18.86878 | 34688 ft | 440 kts | 265° |
| 2026-04-22 21:09 | 39.01774 | -18.94726 | 34696 ft | 440 kts | 265° |
| 2026-04-22 21:10 | 39.01675 | -19.02545 | 34671 ft | 442 kts | 265° |
| 2026-04-22 21:10 | 39.01570 | -19.10379 | 34683 ft | 442 kts | 265° |
| 2026-04-22 21:11 | 39.01460 | -19.18231 | 34684 ft | 443 kts | 265° |
| 2026-04-22 21:11 | 39.01344 | -19.26096 | 34694 ft | 443 kts | 265° |
| 2026-04-22 21:12 | 39.01223 | -19.33986 | 34684 ft | 442 kts | 265° |
| 2026-04-22 21:12 | 39.01097 | -19.41853 | 34684 ft | 442 kts | 265° |
| 2026-04-22 21:13 | 39.00966 | -19.49705 | 34690 ft | 441 kts | 265° |
| 2026-04-22 21:13 | 39.00830 | -19.57528 | 34656 ft | 441 kts | 265° |
| 2026-04-22 21:14 | 39.00688 | -19.65371 | 34684 ft | 441 kts | 265° |
| 2026-04-22 21:14 | 39.00542 | -19.73201 | 34707 ft | 440 kts | 265° |
| 2026-04-22 21:15 | 39.00389 | -19.81027 | 34657 ft | 440 kts | 265° |
| 2026-04-22 21:15 | 39.00233 | -19.88830 | 34660 ft | 440 kts | 265° |
| 2026-04-22 21:16 | 39.00070 | -19.96678 | 34638 ft | 442 kts | 265° |
| 2026-04-22 21:16 | 39.00067 | -20.04530 | 34642 ft | 441 kts | 268° |
| 2026-04-22 21:17 | 39.00188 | -20.12391 | 34636 ft | 442 kts | 268° |
| 2026-04-22 21:17 | 39.00300 | -20.20251 | 34622 ft | 442 kts | 268° |
| 2026-04-22 21:18 | 39.00408 | -20.28112 | 34637 ft | 442 kts | 268° |
| 2026-04-22 21:18 | 39.00510 | -20.36023 | 34632 ft | 441 kts | 268° |
| 2026-04-22 21:19 | 39.00606 | -20.43844 | 34624 ft | 441 kts | 268° |
| 2026-04-22 21:19 | 39.00698 | -20.51712 | 34620 ft | 442 kts | 268° |
| 2026-04-22 21:20 | 39.00784 | -20.59563 | 34620 ft | 442 kts | 268° |
| 2026-04-22 21:20 | 39.00865 | -20.67440 | 34616 ft | 442 kts | 267° |
| 2026-04-22 21:21 | 39.00941 | -20.75318 | 34621 ft | 442 kts | 268° |
| 2026-04-22 21:21 | 39.01011 | -20.83187 | 34614 ft | 442 kts | 268° |
| 2026-04-22 21:22 | 39.01075 | -20.91062 | 34618 ft | 442 kts | 268° |
| 2026-04-22 21:22 | 39.01136 | -20.98951 | 34617 ft | 442 kts | 268° |
| 2026-04-22 21:23 | 39.01191 | -21.06847 | 34613 ft | 442 kts | 268° |
| 2026-04-22 21:23 | 39.01240 | -21.14722 | 34607 ft | 442 kts | 268° |
| 2026-04-22 21:24 | 39.01284 | -21.22614 | 34597 ft | 442 kts | 268° |
| 2026-04-22 21:24 | 39.01322 | -21.30467 | 34599 ft | 443 kts | 268° |
| 2026-04-22 21:25 | 39.01355 | -21.38388 | 34604 ft | 442 kts | 268° |
| 2026-04-22 21:25 | 39.01384 | -21.46272 | 34601 ft | 443 kts | 268° |
| 2026-04-22 21:26 | 39.01406 | -21.54117 | 34607 ft | 444 kts | 268° |
| 2026-04-22 21:26 | 39.01424 | -21.62056 | 34600 ft | 444 kts | 268° |
| 2026-04-22 21:27 | 39.01435 | -21.69997 | 34595 ft | 445 kts | 268° |
| 2026-04-22 21:27 | 39.01442 | -21.77928 | 34600 ft | 445 kts | 268° |
| 2026-04-22 21:28 | 39.01444 | -21.85831 | 34609 ft | 445 kts | 268° |
| 2026-04-22 21:28 | 39.01440 | -21.93791 | 34598 ft | 445 kts | 267° |
| 2026-04-22 21:29 | 39.01431 | -22.01678 | 34587 ft | 445 kts | 267° |
| 2026-04-22 21:29 | 39.01416 | -22.09634 | 34597 ft | 445 kts | 267° |
| 2026-04-22 21:30 | 39.01395 | -22.17581 | 34591 ft | 445 kts | 267° |
| 2026-04-22 21:30 | 39.01370 | -22.25494 | 34578 ft | 445 kts | 267° |
| 2026-04-22 21:31 | 39.01339 | -22.33409 | 34574 ft | 445 kts | 267° |
| 2026-04-22 21:31 | 39.01303 | -22.41377 | 34573 ft | 445 kts | 267° |
| 2026-04-22 21:32 | 39.01261 | -22.49329 | 34579 ft | 446 kts | 267° |
| 2026-04-22 21:32 | 39.01214 | -22.57291 | 34573 ft | 447 kts | 267° |
| 2026-04-22 21:33 | 39.01162 | -22.65214 | 34571 ft | 446 kts | 267° |
| 2026-04-22 21:33 | 39.01104 | -22.73183 | 34589 ft | 445 kts | 267° |
| 2026-04-22 21:34 | 39.01041 | -22.81097 | 34573 ft | 445 kts | 267° |
| 2026-04-22 21:34 | 39.00972 | -22.89026 | 34580 ft | 445 kts | 267° |
| 2026-04-22 21:35 | 39.00899 | -22.96946 | 34570 ft | 446 kts | 267° |
| 2026-04-22 21:35 | 39.00819 | -23.04927 | 34585 ft | 446 kts | 267° |
| 2026-04-22 21:36 | 39.00734 | -23.12839 | 34588 ft | 445 kts | 267° |
| 2026-04-22 21:36 | 39.00645 | -23.20772 | 34578 ft | 446 kts | 266° |
| 2026-04-22 21:37 | 39.00549 | -23.28710 | 34579 ft | 446 kts | 267° |
| 2026-04-22 21:37 | 39.00448 | -23.36645 | 34574 ft | 445 kts | 267° |
| 2026-04-22 21:38 | 39.00341 | -23.44603 | 34564 ft | 446 kts | 267° |
| 2026-04-22 21:38 | 39.00230 | -23.52516 | 34576 ft | 446 kts | 267° |
| 2026-04-22 21:39 | 39.00113 | -23.60489 | 34572 ft | 446 kts | 267° |
| 2026-04-22 21:39 | 38.99982 | -23.68379 | 34576 ft | 445 kts | 265° |
| 2026-04-22 21:40 | 38.99589 | -23.76292 | 34581 ft | 444 kts | 264° |
| 2026-04-22 21:40 | 38.99199 | -23.84203 | 34580 ft | 443 kts | 264° |
| 2026-04-22 21:41 | 38.98805 | -23.92075 | 34568 ft | 444 kts | 264° |
| 2026-04-22 21:41 | 38.98405 | -23.99969 | 34589 ft | 443 kts | 264° |
| 2026-04-22 21:42 | 38.98002 | -24.07831 | 34575 ft | 444 kts | 264° |
| 2026-04-22 21:42 | 38.97591 | -24.15750 | 34565 ft | 444 kts | 264° |
| 2026-04-22 21:43 | 38.97176 | -24.23612 | 34580 ft | 444 kts | 264° |
| 2026-04-22 21:43 | 38.96753 | -24.31532 | 34581 ft | 444 kts | 264° |
| 2026-04-22 21:44 | 38.96329 | -24.39384 | 34571 ft | 444 kts | 264° |
| 2026-04-22 21:44 | 38.95895 | -24.47313 | 34569 ft | 444 kts | 264° |
| 2026-04-22 21:45 | 38.95457 | -24.55219 | 34572 ft | 445 kts | 264° |
| 2026-04-22 21:45 | 38.95013 | -24.63128 | 34577 ft | 445 kts | 264° |
| 2026-04-22 21:46 | 38.94566 | -24.71008 | 34580 ft | 444 kts | 264° |
| 2026-04-22 21:46 | 38.94112 | -24.78896 | 34573 ft | 445 kts | 264° |
| 2026-04-22 21:47 | 38.93653 | -24.86810 | 34579 ft | 444 kts | 264° |
| 2026-04-22 21:47 | 38.93195 | -24.94692 | 34582 ft | 445 kts | 264° |
| 2026-04-22 21:48 | 38.92728 | -24.98590 | 34354 ft | 444 kts | 258° |
| 2026-04-22 21:48 | 38.92147 | -25.02404 | 34064 ft | 435 kts | 258° |
| 2026-04-22 21:48 | 38.91566 | -25.06152 | 33806 ft | 425 kts | 258° |
| 2026-04-22 21:48 | 38.90988 | -25.09859 | 33578 ft | 420 kts | 258° |
| 2026-04-22 21:49 | 38.90412 | -25.13524 | 33356 ft | 417 kts | 258° |
| 2026-04-22 21:49 | 38.89845 | -25.17120 | 33137 ft | 416 kts | 257° |
| 2026-04-22 21:49 | 38.89268 | -25.20771 | 32899 ft | 414 kts | 257° |
| 2026-04-22 21:49 | 38.88703 | -25.24340 | 32660 ft | 411 kts | 258° |
| 2026-04-22 21:50 | 38.88141 | -25.27882 | 32419 ft | 407 kts | 257° |
| 2026-04-22 21:50 | 38.87577 | -25.31422 | 32186 ft | 405 kts | 258° |
| 2026-04-22 21:50 | 38.87014 | -25.34968 | 31938 ft | 402 kts | 257° |
| 2026-04-22 21:50 | 38.86460 | -25.38432 | 31672 ft | 399 kts | 257° |
| 2026-04-22 21:51 | 38.85903 | -25.41912 | 31392 ft | 396 kts | 257° |
| 2026-04-22 21:51 | 38.85357 | -25.45321 | 31119 ft | 394 kts | 257° |
| 2026-04-22 21:51 | 38.84808 | -25.48736 | 30841 ft | 391 kts | 257° |
| 2026-04-22 21:52 | 38.83723 | -25.55474 | 30225 ft | 384 kts | 258° |
| 2026-04-22 21:52 | 38.83177 | -25.58849 | 29903 ft | 382 kts | 258° |
| 2026-04-22 21:52 | 38.82644 | -25.62143 | 29583 ft | 381 kts | 258° |
| 2026-04-22 21:52 | 38.82106 | -25.65466 | 29264 ft | 380 kts | 257° |
| 2026-04-22 21:53 | 38.81572 | -25.68752 | 28964 ft | 378 kts | 257° |
| 2026-04-22 21:53 | 38.81037 | -25.72042 | 28635 ft | 376 kts | 257° |
| 2026-04-22 21:53 | 38.80502 | -25.75320 | 28267 ft | 375 kts | 257° |
| 2026-04-22 21:53 | 38.79972 | -25.78570 | 27912 ft | 371 kts | 257° |
| 2026-04-22 21:54 | 38.79447 | -25.81771 | 27556 ft | 370 kts | 257° |
| 2026-04-22 21:54 | 38.78919 | -25.84987 | 27203 ft | 368 kts | 257° |
| 2026-04-22 21:54 | 38.78394 | -25.88188 | 26847 ft | 365 kts | 257° |
| 2026-04-22 21:54 | 38.77871 | -25.91359 | 26484 ft | 363 kts | 257° |
| 2026-04-22 21:55 | 38.77355 | -25.94489 | 26126 ft | 361 kts | 257° |
| 2026-04-22 21:55 | 38.76842 | -25.97600 | 25775 ft | 358 kts | 257° |
| 2026-04-22 21:55 | 38.76323 | -26.00738 | 25409 ft | 356 kts | 257° |
| 2026-04-22 21:55 | 38.75818 | -26.03787 | 25046 ft | 352 kts | 257° |
| 2026-04-22 21:56 | 38.75315 | -26.06808 | 24663 ft | 346 kts | 257° |
| 2026-04-22 21:56 | 38.74815 | -26.09819 | 24279 ft | 339 kts | 257° |
| 2026-04-22 21:56 | 38.74332 | -26.12724 | 23908 ft | 333 kts | 257° |
| 2026-04-22 21:56 | 38.73856 | -26.15572 | 23522 ft | 328 kts | 257° |
| 2026-04-22 21:57 | 38.73378 | -26.18430 | 23139 ft | 322 kts | 257° |
| 2026-04-22 21:57 | 38.72919 | -26.21175 | 22742 ft | 316 kts | 257° |
| 2026-04-22 21:57 | 38.72469 | -26.23868 | 22263 ft | 304 kts | 257° |
| 2026-04-22 21:57 | 38.72034 | -26.26452 | 21803 ft | 292 kts | 257° |
| 2026-04-22 21:58 | 38.71617 | -26.28938 | 21241 ft | 285 kts | 258° |
| 2026-04-22 21:58 | 38.71197 | -26.31426 | 20792 ft | 285 kts | 257° |
| 2026-04-22 21:58 | 38.70779 | -26.33911 | 20312 ft | 288 kts | 257° |
| 2026-04-22 21:58 | 38.70249 | -26.36384 | 19768 ft | 290 kts | 245° |
| 2026-04-22 21:59 | 38.69046 | -26.38405 | 19193 ft | 291 kts | 223° |
| 2026-04-22 21:59 | 38.67412 | -26.39865 | 18683 ft | 287 kts | 218° |
| 2026-04-22 21:59 | 38.65743 | -26.41235 | 18124 ft | 286 kts | 218° |
| 2026-04-22 21:59 | 38.64064 | -26.42610 | 17445 ft | 284 kts | 218° |
| 2026-04-22 22:00 | 38.62410 | -26.43960 | 16798 ft | 281 kts | 218° |
| 2026-04-22 22:00 | 38.60790 | -26.45277 | 16164 ft | 279 kts | 218° |
| 2026-04-22 22:00 | 38.59159 | -26.46598 | 15523 ft | 276 kts | 218° |
| 2026-04-22 22:00 | 38.57541 | -26.47903 | 14890 ft | 274 kts | 218° |
| 2026-04-22 22:01 | 38.55931 | -26.49191 | 14247 ft | 272 kts | 218° |
| 2026-04-22 22:01 | 38.54373 | -26.50472 | 13620 ft | 267 kts | 225° |
| 2026-04-22 22:01 | 38.53075 | -26.52134 | 13034 ft | 262 kts | 233° |
| 2026-04-22 22:01 | 38.51863 | -26.53886 | 12469 ft | 268 kts | 233° |
| 2026-04-22 22:02 | 38.50759 | -26.55750 | 11746 ft | 263 kts | 243° |
| 2026-04-22 22:02 | 38.49832 | -26.57730 | 11123 ft | 259 kts | 243° |
| 2026-04-22 22:02 | 38.48915 | -26.59691 | 10484 ft | 256 kts | 243° |
| 2026-04-22 22:02 | 38.48195 | -26.61690 | 9858 ft | 250 kts | 253° |
| 2026-04-22 22:03 | 38.47606 | -26.63756 | 9222 ft | 248 kts | 253° |
| 2026-04-22 22:03 | 38.47105 | -26.65812 | 8591 ft | 244 kts | 265° |
| 2026-04-22 22:03 | 38.47347 | -26.67921 | 7987 ft | 241 kts | 294° |
| 2026-04-22 22:03 | 38.48346 | -26.69629 | 7410 ft | 242 kts | 304° |
| 2026-04-22 22:04 | 38.49262 | -26.71395 | 6801 ft | 239 kts | 304° |
| 2026-04-22 22:04 | 38.50261 | -26.73058 | 6193 ft | 238 kts | 301° |
| 2026-04-22 22:04 | 38.51189 | -26.74773 | 5575 ft | 237 kts | 301° |
| 2026-04-22 22:04 | 38.52110 | -26.76507 | 4953 ft | 236 kts | 301° |
| 2026-04-22 22:05 | 38.53003 | -26.78210 | 4504 ft | 229 kts | 301° |
| 2026-04-22 22:05 | 38.53896 | -26.79918 | 4116 ft | 231 kts | 301° |
| 2026-04-22 22:05 | 38.54795 | -26.81641 | 3663 ft | 237 kts | 301° |
| 2026-04-22 22:05 | 38.55696 | -26.83364 | 3468 ft | 232 kts | 301° |
| 2026-04-22 22:06 | 38.56574 | -26.85047 | 3499 ft | 219 kts | 301° |
| 2026-04-22 22:06 | 38.57405 | -26.86640 | 3471 ft | 212 kts | 300° |
| 2026-04-22 22:06 | 38.58197 | -26.88162 | 3454 ft | 201 kts | 300° |
| 2026-04-22 22:06 | 38.58965 | -26.89639 | 3484 ft | 200 kts | 301° |
| 2026-04-22 22:07 | 38.59733 | -26.91114 | 3486 ft | 201 kts | 300° |
| 2026-04-22 22:07 | 38.60514 | -26.92606 | 3486 ft | 202 kts | 303° |
| 2026-04-22 22:07 | 38.61613 | -26.93748 | 3488 ft | 210 kts | 327° |
| 2026-04-22 22:07 | 38.62756 | -26.94867 | 3503 ft | 203 kts | 309° |
| 2026-04-22 22:08 | 38.63765 | -26.96088 | 3283 ft | 200 kts | 314° |
| 2026-04-22 22:08 | 38.64800 | -26.97222 | 3015 ft | 195 kts | 314° |
| 2026-04-22 22:08 | 38.65816 | -26.98300 | 2727 ft | 187 kts | 315° |
| 2026-04-22 22:08 | 38.66807 | -26.99322 | 2437 ft | 176 kts | 316° |
| 2026-04-22 22:09 | 38.67763 | -27.00240 | 2298 ft | 163 kts | 316° |
| 2026-04-22 22:09 | 38.68628 | -27.01100 | 2150 ft | 150 kts | 314° |
| 2026-04-22 22:09 | 38.69385 | -27.01885 | 2002 ft | 132 kts | 313° |
| 2026-04-22 22:09 | 38.70068 | -27.02633 | 1728 ft | 128 kts | 311° |
| 2026-04-22 22:10 | 38.70739 | -27.03383 | 1476 ft | 128 kts | 313° |
| 2026-04-22 22:10 | 38.71417 | -27.04119 | 1257 ft | 130 kts | 314° |
| 2026-04-22 22:10 | 38.72134 | -27.04853 | 1048 ft | 131 kts | 315° |
| 2026-04-22 22:10 | 38.72855 | -27.05598 | 877 ft | 132 kts | 315° |
| 2026-04-22 22:11 | 38.73572 | -27.06353 | 696 ft | 133 kts | 315° |
| 2026-04-22 22:11 | 38.74297 | -27.07120 | 505 ft | 136 kts | 317° |
| 2026-04-22 22:11 | 38.75035 | -27.07875 | 313 ft | 137 kts | 317° |
| 2026-04-22 22:11 | 38.75775 | -27.08646 | 202 ft | 130 kts | 317° |
| 2026-04-22 22:12 | 38.76354 | -27.09259 | 183 ft | 82 kts | 320° |
| 2026-04-22 22:12 | 38.76743 | -27.09667 | 172 ft | 74 kts | 320° |
| 2026-04-22 22:12 | 38.77089 | -27.10027 | 170 ft | 48 kts | 320° |
| 2026-04-22 22:12 | 38.77196 | -27.10115 | 169 ft | 7 kts | 14° |
| 2026-04-22 22:13 | 38.77244 | -27.10047 | 167 ft | 13 kts | 51° |
| 2026-04-22 22:13 | 38.77250 | -27.09953 | 165 ft | 13 kts | 139° |
| 2026-04-22 22:13 | 38.77171 | -27.09868 | 164 ft | 16 kts | 140° |
| 2026-04-22 22:13 | 38.77072 | -27.09765 | 166 ft | 19 kts | 141° |
| 2026-04-22 22:14 | 38.76961 | -27.09647 | 168 ft | 21 kts | 140° |
| 2026-04-22 22:14 | 38.76837 | -27.09520 | 170 ft | 24 kts | 142° |
| 2026-04-22 22:14 | 38.76703 | -27.09380 | 175 ft | 25 kts | 141° |
| 2026-04-22 22:14 | 38.76562 | -27.09233 | 179 ft | 27 kts | 141° |
| 2026-04-22 22:15 | 38.76446 | -27.09112 | 182 ft | 15 kts | 141° |
| 2026-04-22 22:15 | 38.76346 | -27.09067 | 185 ft | 16 kts | 180° |
| 2026-04-22 22:15 | 38.76221 | -27.09075 | 186 ft | 19 kts | 179° |
| 2026-04-22 22:15 | 38.76102 | -27.08994 | 189 ft | 20 kts | 140° |
| 2026-04-22 22:16 | 38.75979 | -27.08889 | 194 ft | 21 kts | 175° |
| 2026-04-22 22:16 | 38.75825 | -27.08904 | 197 ft | 23 kts | 184° |
| 2026-04-22 22:16 | 38.75720 | -27.08914 | 201 ft | 8 kts | 180° |
| 2026-04-22 22:16 | 38.75689 | -27.08894 | 202 ft | 3 kts | 143° |
| 2026-04-22 22:17 | 38.75681 | -27.08886 | 203 ft | 0 kts | 143° |